Telfer, Western Australia

6:41 AM AWST on August 28, 2015 (GMT +0800)
Telfer | | Change Station
CLOSE
Current Station
Airport
Location: Telfer,
Elevation: 971 ft
Nearby Weather Stations

Elev 971 ft 21.72 °S, 122.23 °E | Updated 41 minutes ago

Clear
Clear
66 °F
Feels Like 66 °F
N
6
Wind Variable Wind from ENE
Gusts mph

Today
High -- | Low -- °F
--% Chance of Precip.
Yesterday
High -- | Low -- °F
Precip. -- in
6:04 AM 5:40 PM
Waxing Gibbous, 95% visible
Pressure 30.04 in
Visibility -9999.0 miles
Clouds
Dew Point 34 °F
Humidity 30%
Rainfall 0.00 in
Snow Depth Not available.
UV Not available.
Pollen Not available.
Air Quality Not available.
Flu Activity Not available.
METAR YTEF 272200Z AUTO 07005KT 040V110 //// // ////// 19/01 Q1017
Pressure 30.04 in
Visibility -9999.0 miles
Clouds
Dew Point 34 °F
Humidity 30%
Rainfall 0.00 in
Snow Depth Not available.
UV Not available.
Pollen Not available.
Air Quality Not available.
Flu Activity Not available.
METAR YTEF 272200Z AUTO 07005KT 040V110 //// // ////// 19/01 Q1017

10-Day Weather Forecast

×

Almanac

Astronomy

Aug. 28, 2015 Rise Set
Actual Time
Civil Twilight
Nautical Twilight
Astronomical Twilight
Moon
Length of Visible Light
Length of Day
Tomorrow will be .
, % of the Moon is Illuminated

Today's Extremes

Country Highs Country Lows

Community

WunderPhotos

Upload Photos

1,850,252 photos uploaded!

WunderBlogs® & News

Nearby

Air Quality

  Air Quality AQ Index Pollutant
Not available.

Snow Depth

Station Depth Elevation

Earthquake Activity

City Distance Mag. Time & Date
Minimum magnitude displayed is 2.5.

Coastal Water Temperatures

Place Temperature

Stations

Nearby Weather Stations

Station Location Temp. Windchill Dew Point Humidity Wind Precip. Elev Updated Type